createdAt,value
2018-08-24T00:02:16.972Z,17.20
2018-08-24T00:04:45.673Z,17.20
2018-08-24T00:07:14.402Z,17.10
2018-08-24T00:09:43.238Z,17.10
2018-08-24T00:12:12.012Z,17.00
2018-08-24T00:14:40.787Z,17.00
2018-08-24T00:17:14.784Z,17.00
2018-08-24T00:19:43.412Z,17.00
2018-08-24T00:22:12.147Z,17.00
2018-08-24T00:24:40.791Z,17.00
2018-08-24T00:27:09.407Z,17.00
2018-08-24T00:29:38.188Z,17.00
2018-08-24T00:32:06.800Z,17.00
2018-08-24T00:34:35.406Z,17.00
2018-08-24T00:37:04.480Z,17.00
2018-08-24T00:39:33.054Z,17.00
2018-08-24T00:42:01.858Z,17.00
2018-08-24T00:44:30.561Z,16.90
2018-08-24T00:47:04.616Z,16.90
2018-08-24T00:49:33.249Z,16.90
2018-08-24T00:52:01.897Z,16.90
2018-08-24T00:54:30.468Z,16.90
2018-08-24T00:56:59.126Z,16.90
2018-08-24T00:59:28.002Z,16.90
2018-08-24T01:01:57.009Z,16.90
2018-08-24T01:04:31.054Z,16.90
2018-08-24T01:07:00.435Z,16.80
2018-08-24T01:09:29.283Z,16.80
2018-08-24T01:12:03.685Z,16.80
2018-08-24T01:14:32.532Z,16.70
2018-08-24T01:17:06.372Z,16.70
2018-08-24T01:19:38.370Z,16.70
2018-08-24T01:22:08.280Z,16.70
2018-08-24T01:24:39.872Z,16.70
2018-08-24T01:27:14.434Z,16.80
2018-08-24T01:29:51.774Z,16.70
2018-08-24T01:32:23.488Z,16.70
2018-08-24T01:34:53.703Z,16.70
2018-08-24T01:37:31.185Z,16.70
2018-08-24T01:40:07.290Z,16.60
2018-08-24T01:42:39.248Z,16.60
2018-08-24T01:47:49.350Z,16.60
2018-08-24T01:50:30.541Z,16.60
2018-08-24T01:53:00.480Z,16.50
2018-08-24T01:55:30.992Z,16.40
2018-08-24T01:58:00.452Z,16.40
2018-08-24T02:00:31.555Z,16.40
2018-08-24T02:05:44.098Z,16.30
2018-08-24T02:08:18.168Z,16.30
2018-08-24T02:19:37.428Z,16.20
2018-08-24T02:22:13.833Z,16.10
2018-08-24T02:24:45.376Z,16.10
2018-08-24T02:27:18.875Z,16.00
2018-08-24T02:29:59.721Z,16.00
2018-08-24T02:32:30.016Z,16.00
2018-08-24T02:35:01.411Z,15.90
2018-08-24T02:37:44.621Z,15.90
2018-08-24T02:43:28.374Z,15.90
2018-08-24T02:49:33.646Z,15.80
2018-08-24T03:00:56.368Z,15.70
2018-08-24T03:03:25.282Z,15.70
2018-08-24T03:05:54.004Z,15.70
2018-08-24T03:08:22.790Z,15.60
2018-08-24T03:10:51.486Z,15.60
2018-08-24T03:13:20.320Z,15.60
2018-08-24T03:15:49.570Z,15.60
2018-08-24T03:18:18.682Z,15.60
2018-08-24T03:20:47.428Z,15.60
2018-08-24T03:23:16.425Z,15.60
2018-08-24T03:25:46.385Z,15.60
2018-08-24T03:28:16.510Z,15.60
2018-08-24T03:30:46.138Z,15.60
2018-08-24T03:33:16.383Z,15.60
2018-08-24T03:35:46.636Z,15.50
2018-08-24T03:38:15.979Z,15.50
2018-08-24T03:40:46.667Z,15.50
2018-08-24T03:43:15.695Z,15.40
2018-08-24T03:45:46.015Z,15.40
2018-08-24T03:48:16.146Z,15.40
2018-08-24T03:50:45.826Z,15.40
2018-08-24T03:53:15.655Z,15.40
2018-08-24T03:55:46.612Z,15.40
2018-08-24T03:58:16.100Z,15.30
2018-08-24T04:00:46.539Z,15.30
2018-08-24T04:03:15.229Z,15.30
2018-08-24T04:05:44.298Z,15.30
2018-08-24T04:08:13.035Z,15.30
2018-08-24T04:10:42.563Z,15.30
2018-08-24T04:13:11.282Z,15.20
2018-08-24T04:15:39.638Z,15.20
2018-08-24T04:18:07.991Z,15.20
2018-08-24T04:20:36.344Z,15.20
2018-08-24T04:23:05.344Z,15.20
2018-08-24T04:25:33.903Z,15.20
2018-08-24T04:28:02.207Z,15.20
2018-08-24T04:30:30.691Z,15.20
2018-08-24T04:32:59.153Z,15.20
2018-08-24T04:35:27.439Z,15.20
2018-08-24T04:37:55.709Z,15.30
2018-08-24T04:40:24.095Z,15.30
2018-08-24T04:42:52.269Z,15.30
2018-08-24T04:45:20.651Z,15.20
2018-08-24T04:47:49.120Z,15.20
2018-08-24T04:50:17.822Z,15.20
2018-08-24T04:52:46.716Z,15.20
2018-08-24T04:55:15.171Z,15.20
2018-08-24T04:57:43.800Z,15.20
2018-08-24T05:00:12.161Z,15.20
2018-08-24T05:02:40.459Z,15.20
2018-08-24T05:05:09.337Z,15.20
2018-08-24T05:07:37.703Z,15.20
2018-08-24T05:10:06.347Z,15.20
2018-08-24T05:12:41.388Z,15.30
2018-08-24T05:15:09.695Z,15.30
2018-08-24T05:17:38.034Z,15.40
2018-08-24T05:20:06.558Z,15.40
2018-08-24T05:22:34.968Z,15.40
2018-08-24T05:25:03.448Z,15.50
2018-08-24T05:27:31.699Z,15.60
2018-08-24T05:30:01.000Z,15.70
2018-08-24T05:32:29.370Z,15.80
2018-08-24T05:34:57.657Z,15.90
2018-08-24T05:37:26.032Z,16.10
2018-08-24T05:39:54.298Z,16.20
2018-08-24T05:42:22.593Z,16.40
2018-08-24T05:44:50.945Z,16.50
2018-08-24T05:47:19.754Z,16.70
2018-08-24T05:49:48.107Z,16.80
2018-08-24T05:52:16.427Z,16.90
2018-08-24T05:54:46.123Z,17.10
2018-08-24T05:57:15.732Z,17.20
2018-08-24T05:59:44.716Z,17.40
2018-08-24T06:02:13.097Z,17.50
2018-08-24T06:04:41.394Z,17.80
2018-08-24T06:07:09.680Z,18.00
2018-08-24T06:09:37.920Z,18.10
2018-08-24T06:12:06.209Z,18.30
2018-08-24T06:14:34.473Z,18.50
2018-08-24T06:17:08.145Z,18.40
2018-08-24T06:19:36.547Z,18.20
2018-08-24T06:22:05.096Z,18.10
2018-08-24T06:24:33.452Z,17.90
2018-08-24T06:27:01.960Z,17.90
2018-08-24T06:29:30.278Z,17.90
2018-08-24T06:31:58.550Z,17.80
2018-08-24T06:34:26.883Z,17.60
2018-08-24T06:36:55.144Z,17.50
2018-08-24T06:39:23.440Z,17.40
2018-08-24T06:41:51.763Z,17.40
2018-08-24T06:44:20.975Z,17.30
2018-08-24T06:46:49.345Z,17.20
2018-08-24T06:49:17.793Z,17.00
2018-08-24T06:51:46.318Z,17.00
2018-08-24T06:54:16.416Z,17.10
2018-08-24T06:56:45.507Z,17.00
2018-08-24T06:59:15.261Z,17.00
2018-08-24T07:01:44.372Z,16.90
2018-08-24T07:04:13.834Z,16.90
2018-08-24T07:06:43.573Z,16.90
2018-08-24T07:09:12.614Z,16.80
2018-08-24T07:11:40.966Z,16.80
2018-08-24T07:14:09.329Z,16.70
2018-08-24T07:16:37.652Z,16.60
2018-08-24T07:19:06.070Z,16.60
2018-08-24T07:21:35.462Z,16.50
2018-08-24T07:24:04.116Z,16.50
2018-08-24T07:26:33.466Z,16.30
2018-08-24T07:29:03.503Z,16.20
2018-08-24T07:31:31.817Z,16.10
2018-08-24T07:34:00.195Z,16.00
2018-08-24T07:36:28.661Z,15.90
2018-08-24T07:38:56.996Z,15.70
2018-08-24T07:41:25.586Z,15.60
2018-08-24T07:43:59.435Z,15.50
2018-08-24T07:46:27.946Z,15.50
2018-08-24T07:48:56.230Z,15.40
2018-08-24T07:51:24.498Z,15.30
2018-08-24T07:53:52.793Z,15.20
2018-08-24T07:56:21.065Z,15.10
2018-08-24T07:58:49.413Z,15.10
2018-08-24T08:01:18.025Z,15.10
2018-08-24T08:03:46.982Z,15.10
2018-08-24T08:06:15.383Z,15.20
2018-08-24T08:08:44.284Z,15.20
2018-08-24T08:11:12.967Z,15.30
2018-08-24T08:13:41.224Z,15.30
2018-08-24T08:16:10.505Z,15.00
2018-08-24T08:18:38.837Z,15.30
2018-08-24T08:21:07.144Z,15.20
2018-08-24T08:23:35.459Z,15.20
2018-08-24T08:26:03.812Z,15.30
2018-08-24T08:28:32.214Z,15.10
2018-08-24T08:31:00.506Z,15.10
2018-08-24T08:33:28.792Z,15.10
2018-08-24T08:35:57.069Z,14.90
2018-08-24T08:38:25.336Z,14.80
2018-08-24T08:40:53.600Z,14.80
2018-08-24T08:43:21.998Z,14.70
2018-08-24T08:45:50.493Z,14.80
2018-08-24T08:48:18.837Z,14.90
2018-08-24T08:50:47.128Z,15.00
2018-08-24T08:53:15.712Z,15.00
2018-08-24T08:55:44.397Z,15.00
2018-08-24T08:58:13.354Z,15.00
2018-08-24T09:00:41.698Z,15.20
2018-08-24T09:03:10.032Z,15.20
2018-08-24T09:05:38.285Z,15.20
2018-08-24T09:08:06.541Z,15.20
2018-08-24T09:10:34.937Z,15.10
2018-08-24T09:13:03.381Z,15.10
2018-08-24T09:15:31.630Z,15.10
2018-08-24T09:19:08.157Z,15.10
2018-08-24T09:21:42.739Z,15.10
2018-08-24T09:24:16.301Z,14.90
2018-08-24T09:26:50.750Z,15.00
2018-08-24T09:29:25.699Z,15.00
2018-08-24T09:31:54.337Z,14.90
2018-08-24T09:34:22.784Z,15.00
2018-08-24T09:36:51.143Z,15.10
2018-08-24T09:39:25.853Z,15.20
2018-08-24T09:41:56.075Z,15.10
2018-08-24T09:44:24.369Z,15.30
2018-08-24T09:46:58.049Z,15.40
2018-08-24T09:49:26.837Z,15.50
2018-08-24T09:51:55.339Z,15.70
2018-08-24T09:54:24.024Z,15.70
2018-08-24T09:56:52.485Z,16.10
2018-08-24T09:59:20.777Z,16.10
2018-08-24T10:01:56.167Z,16.40
2018-08-24T10:04:29.719Z,16.80
2018-08-24T10:07:03.367Z,16.90
2018-08-24T10:09:31.779Z,17.00
2018-08-24T10:12:00.139Z,17.20
2018-08-24T10:14:28.461Z,17.20
2018-08-24T10:16:56.725Z,16.90
2018-08-24T10:19:25.016Z,16.90
2018-08-24T10:21:53.363Z,17.10
2018-08-24T10:24:21.638Z,16.80
2018-08-24T10:26:50.087Z,16.60
2018-08-24T10:29:18.779Z,16.70
2018-08-24T10:31:47.684Z,16.90
2018-08-24T10:34:16.387Z,17.20
2018-08-24T10:36:47.143Z,17.40
2018-08-24T10:39:15.655Z,17.90
2018-08-24T10:41:45.263Z,18.10
2018-08-24T10:44:13.951Z,18.50
2018-08-24T10:46:42.193Z,18.50
2018-08-24T10:49:10.518Z,18.60
2018-08-24T10:51:38.738Z,18.50
2018-08-24T10:54:07.092Z,18.50
2018-08-24T10:56:35.397Z,18.50
2018-08-24T10:59:03.975Z,18.70
2018-08-24T11:01:32.257Z,18.80
2018-08-24T11:04:00.545Z,18.70
2018-08-24T11:06:35.160Z,18.40
2018-08-24T11:09:05.033Z,18.30
2018-08-24T11:11:33.547Z,18.30
2018-08-24T11:14:01.993Z,18.50
2018-08-24T11:16:30.259Z,18.80
2018-08-24T11:18:58.577Z,19.20
2018-08-24T11:21:26.927Z,19.00
2018-08-24T11:23:55.333Z,19.00
2018-08-24T11:26:23.626Z,19.00
2018-08-24T11:28:51.891Z,19.20
2018-08-24T11:31:20.266Z,19.00
2018-08-24T11:33:48.665Z,19.00
2018-08-24T11:36:17.258Z,19.00
2018-08-24T11:38:45.724Z,19.10
2018-08-24T11:41:14.948Z,19.00
2018-08-24T11:43:44.532Z,19.10
2018-08-24T11:46:13.589Z,19.40
2018-08-24T11:48:43.828Z,19.40
2018-08-24T11:51:12.070Z,19.40
2018-08-24T11:53:40.389Z,19.60
2018-08-24T11:56:08.670Z,19.70
2018-08-24T11:58:37.025Z,19.50
2018-08-24T12:01:05.342Z,19.70
2018-08-24T12:03:33.729Z,19.70
2018-08-24T12:06:02.007Z,19.70
2018-08-24T12:08:30.296Z,19.80
2018-08-24T12:10:58.492Z,19.80
2018-08-24T12:13:26.745Z,20.00
2018-08-24T12:15:54.964Z,19.70
2018-08-24T12:18:23.272Z,19.30
2018-08-24T12:20:51.429Z,19.30
2018-08-24T12:23:19.798Z,19.70
2018-08-24T12:25:48.260Z,20.00
2018-08-24T12:28:17.759Z,20.20
2018-08-24T12:30:46.294Z,20.30
2018-08-24T12:33:15.250Z,20.40
2018-08-24T12:35:44.526Z,20.30
2018-08-24T12:38:13.630Z,20.20
2018-08-24T12:40:42.600Z,20.20
2018-08-24T12:43:10.868Z,20.10
2018-08-24T12:45:39.105Z,19.80
2018-08-24T12:48:07.377Z,19.90
2018-08-24T12:50:35.688Z,20.20
2018-08-24T12:53:03.996Z,20.40
2018-08-24T12:55:32.219Z,20.30
2018-08-24T12:58:00.454Z,20.20
2018-08-24T13:00:28.680Z,20.10
2018-08-24T13:02:56.905Z,20.10
2018-08-24T13:05:25.140Z,20.20
2018-08-24T13:07:53.442Z,20.40
2018-08-24T13:10:22.149Z,20.50
2018-08-24T13:12:50.422Z,20.50
2018-08-24T13:15:18.867Z,20.20
2018-08-24T13:17:47.687Z,19.90
2018-08-24T13:20:16.023Z,19.90
2018-08-24T13:22:46.047Z,19.80
2018-08-24T13:25:15.545Z,20.00
2018-08-24T13:27:45.250Z,20.00
2018-08-24T13:30:14.063Z,19.80
2018-08-24T13:32:43.347Z,19.70
2018-08-24T13:35:11.666Z,19.70
2018-08-24T13:37:39.942Z,19.70
2018-08-24T13:40:08.220Z,19.80
2018-08-24T13:42:36.491Z,20.00
2018-08-24T13:45:04.755Z,20.20
2018-08-24T13:47:33.159Z,20.30
2018-08-24T13:50:01.344Z,20.40
2018-08-24T13:52:29.554Z,20.30
2018-08-24T13:54:57.791Z,20.30
2018-08-24T13:57:26.108Z,20.20
2018-08-24T13:59:54.358Z,20.30
2018-08-24T14:02:22.709Z,20.30
2018-08-24T14:04:51.159Z,20.10
2018-08-24T14:07:19.439Z,20.10
2018-08-24T14:09:47.942Z,20.00
2018-08-24T14:12:16.667Z,20.00
2018-08-24T14:14:45.117Z,20.10
2018-08-24T14:17:14.028Z,20.10
2018-08-24T14:19:43.548Z,20.00
2018-08-24T14:22:12.548Z,20.00
2018-08-24T14:24:40.805Z,20.00
2018-08-24T14:27:09.088Z,20.00
2018-08-24T14:29:37.353Z,20.00
2018-08-24T14:32:05.747Z,20.00
2018-08-24T14:34:34.094Z,20.00
2018-08-24T14:37:02.468Z,20.10
2018-08-24T14:39:30.734Z,20.20
2018-08-24T14:41:58.987Z,20.10
2018-08-24T14:44:27.334Z,20.00
2018-08-24T14:46:55.641Z,20.00
2018-08-24T14:49:23.884Z,20.00
2018-08-24T14:51:52.136Z,20.00
2018-08-24T14:54:20.543Z,20.00
2018-08-24T14:56:48.878Z,20.10
2018-08-24T14:59:17.208Z,19.90
2018-08-24T15:01:45.598Z,20.00
2018-08-24T15:04:15.040Z,20.20
2018-08-24T15:06:44.360Z,20.10
2018-08-24T15:09:13.706Z,20.20
2018-08-24T15:11:42.690Z,20.20
2018-08-24T15:14:10.969Z,19.80
2018-08-24T15:16:39.279Z,19.90
2018-08-24T15:19:07.641Z,19.90
2018-08-24T15:21:39.083Z,19.80
2018-08-24T15:24:07.629Z,19.80
2018-08-24T15:26:35.885Z,19.90
2018-08-24T15:29:04.150Z,20.00
2018-08-24T15:31:32.630Z,20.00
2018-08-24T15:34:01.017Z,20.00
2018-08-24T15:36:31.313Z,20.00
2018-08-24T15:38:59.652Z,20.00
2018-08-24T15:41:27.957Z,19.90
2018-08-24T15:43:56.481Z,19.90
2018-08-24T15:46:25.036Z,19.80
2018-08-24T15:48:53.271Z,19.90
2018-08-24T15:51:21.550Z,19.90
2018-08-24T15:53:52.863Z,19.90
2018-08-24T15:56:21.192Z,19.90
2018-08-24T15:58:49.509Z,19.90
2018-08-24T16:01:18.244Z,20.00
2018-08-24T16:03:47.702Z,20.00
2018-08-24T16:06:15.974Z,20.10
2018-08-24T16:08:46.539Z,20.00
2018-08-24T16:11:17.360Z,20.00
2018-08-24T16:13:48.455Z,20.00
2018-08-24T16:16:17.013Z,19.90
2018-08-24T16:18:45.828Z,19.80
2018-08-24T16:21:16.060Z,19.70
2018-08-24T16:23:46.861Z,19.60
2018-08-24T16:26:20.545Z,19.60
2018-08-24T16:28:49.737Z,19.50
2018-08-24T16:31:19.368Z,19.50
2018-08-24T16:33:47.877Z,19.50
2018-08-24T16:36:16.452Z,19.40
2018-08-24T16:38:46.428Z,19.40
2018-08-24T16:41:16.337Z,19.30
2018-08-24T16:43:46.355Z,19.30
2018-08-24T16:46:17.232Z,19.30
2018-08-24T16:48:45.847Z,19.30
2018-08-24T16:51:15.668Z,19.30
2018-08-24T16:53:44.810Z,19.30
2018-08-24T16:56:14.470Z,19.30
2018-08-24T16:58:43.856Z,19.20
2018-08-24T17:01:12.131Z,19.00
2018-08-24T17:03:40.439Z,18.90
2018-08-24T17:06:08.669Z,18.80
2018-08-24T17:08:36.986Z,18.70
2018-08-24T17:11:05.299Z,18.70
2018-08-24T17:13:33.703Z,18.60
2018-08-24T17:16:02.718Z,18.50
2018-08-24T17:18:33.776Z,18.40
2018-08-24T17:21:04.590Z,18.30
2018-08-24T17:23:35.804Z,18.30
2018-08-24T17:28:52.813Z,18.10
2018-08-24T17:31:30.328Z,18.10
2018-08-24T17:34:02.294Z,18.00
2018-08-24T17:36:30.745Z,17.90
2018-08-24T17:39:17.363Z,17.90
2018-08-24T17:41:45.681Z,17.80
2018-08-24T17:44:14.905Z,17.80
2018-08-24T17:46:46.655Z,17.70
2018-08-24T17:49:20.129Z,17.70
2018-08-24T17:51:51.573Z,17.60
2018-08-24T17:54:21.271Z,17.60
2018-08-24T17:56:49.898Z,17.50
2018-08-24T17:59:21.193Z,17.50
2018-08-24T18:02:02.422Z,17.40
2018-08-24T18:04:37.028Z,17.40
2018-08-24T18:07:05.688Z,17.30
2018-08-24T18:09:35.387Z,17.20
2018-08-24T18:12:04.372Z,17.20
2018-08-24T18:14:44.758Z,17.10
2018-08-24T18:17:18.081Z,17.10
2018-08-24T18:19:48.240Z,17.00
2018-08-24T18:22:17.417Z,16.70
2018-08-24T18:24:45.855Z,16.90
2018-08-24T18:27:15.847Z,16.80
2018-08-24T18:29:44.816Z,16.80
2018-08-24T18:32:13.021Z,16.70
2018-08-24T18:34:41.454Z,16.70
2018-08-24T18:37:09.952Z,16.60
2018-08-24T18:39:39.105Z,16.50
2018-08-24T18:42:07.382Z,16.50
2018-08-24T18:44:35.789Z,16.40
2018-08-24T18:47:04.132Z,16.40
2018-08-24T18:49:32.556Z,16.40
2018-08-24T18:52:00.888Z,16.30
2018-08-24T18:54:29.168Z,16.30
2018-08-24T18:56:57.677Z,16.20
2018-08-24T18:59:25.985Z,16.20
2018-08-24T19:01:54.385Z,16.20
2018-08-24T19:04:22.693Z,16.10
2018-08-24T19:06:51.006Z,16.10
2018-08-24T19:09:19.288Z,16.10
2018-08-24T19:11:52.856Z,16.00
2018-08-24T19:14:24.248Z,16.00
2018-08-24T19:16:53.174Z,16.00
2018-08-24T19:19:26.965Z,16.00
2018-08-24T19:22:04.062Z,15.90
2018-08-24T19:24:35.636Z,15.90
2018-08-24T19:27:04.021Z,15.80
2018-08-24T19:30:37.220Z,15.80
2018-08-24T19:33:05.560Z,15.70
2018-08-24T19:35:33.861Z,15.70
2018-08-24T19:38:02.239Z,15.60
2018-08-24T19:40:35.941Z,15.60
2018-08-24T19:43:04.206Z,15.50
2018-08-24T19:45:32.478Z,15.50
2018-08-24T19:48:06.054Z,15.40
2018-08-24T19:50:34.504Z,15.40
2018-08-24T19:53:02.824Z,15.40
2018-08-24T19:55:31.255Z,15.30
2018-08-24T19:58:04.957Z,15.30
2018-08-24T20:00:34.427Z,15.20
2018-08-24T20:03:06.497Z,15.20
2018-08-24T20:05:34.858Z,15.10
2018-08-24T20:08:08.632Z,15.10
2018-08-24T20:10:39.003Z,15.10
2018-08-24T20:13:07.464Z,15.10
2018-08-24T20:15:41.030Z,15.10
2018-08-24T20:18:09.241Z,15.10
2018-08-24T20:20:37.517Z,15.10
2018-08-24T20:23:06.219Z,15.10
2018-08-24T20:25:34.644Z,15.10
2018-08-24T20:28:02.916Z,15.00
2018-08-24T20:30:32.310Z,15.00
2018-08-24T20:33:06.440Z,15.00
2018-08-24T20:35:36.687Z,14.90
2018-08-24T20:38:05.344Z,14.90
2018-08-24T20:40:39.244Z,14.90
2018-08-24T20:43:07.476Z,14.80
2018-08-24T20:45:36.362Z,14.80
2018-08-24T20:48:13.265Z,14.70
2018-08-24T20:50:41.513Z,14.60
2018-08-24T20:53:09.777Z,14.50
2018-08-24T20:55:38.104Z,14.40
2018-08-24T20:58:06.255Z,14.30
2018-08-24T21:00:34.534Z,14.20
2018-08-24T21:03:03.408Z,14.00
2018-08-24T21:05:31.684Z,13.90
2018-08-24T21:07:59.878Z,13.80
2018-08-24T21:10:28.145Z,13.70
2018-08-24T21:12:56.405Z,13.60
2018-08-24T21:15:24.708Z,13.60
2018-08-24T21:17:53.001Z,13.50
2018-08-24T21:20:21.311Z,13.40
2018-08-24T21:22:50.106Z,13.30
2018-08-24T21:25:18.478Z,13.30
2018-08-24T21:27:47.016Z,13.20
2018-08-24T21:30:15.559Z,13.20
2018-08-24T21:32:44.953Z,13.20
2018-08-24T21:35:14.504Z,13.20
2018-08-24T21:37:43.824Z,13.20
2018-08-24T21:40:12.147Z,13.20
2018-08-24T21:42:40.709Z,13.20
2018-08-24T21:45:09.258Z,13.30
2018-08-24T21:47:37.532Z,13.40
2018-08-24T21:50:05.957Z,13.40
2018-08-24T21:52:35.368Z,13.40
2018-08-24T21:55:03.747Z,13.50
2018-08-24T21:57:32.032Z,13.50
2018-08-24T22:00:00.311Z,13.50
2018-08-24T22:02:28.573Z,13.50
2018-08-24T22:04:56.881Z,13.50
2018-08-24T22:07:31.177Z,13.40
2018-08-24T22:09:59.520Z,13.50
2018-08-24T22:12:27.779Z,13.50
2018-08-24T22:14:56.009Z,13.50
2018-08-24T22:17:24.272Z,13.50
2018-08-24T22:19:52.492Z,13.60
2018-08-24T22:22:20.749Z,13.60
2018-08-24T22:24:49.051Z,13.60
2018-08-24T22:27:17.392Z,13.70
2018-08-24T22:29:45.856Z,13.70
2018-08-24T22:32:14.920Z,13.80
2018-08-24T22:34:44.756Z,13.80
2018-08-24T22:37:13.016Z,13.80
2018-08-24T22:39:41.247Z,13.90
2018-08-24T22:42:09.543Z,13.90
2018-08-24T22:44:37.765Z,14.00
2018-08-24T22:47:06.110Z,14.00
2018-08-24T22:49:34.385Z,14.00
2018-08-24T22:52:02.652Z,14.10
2018-08-24T22:54:31.307Z,14.10
2018-08-24T22:56:59.527Z,14.20
2018-08-24T22:59:27.760Z,14.20
2018-08-24T23:01:56.000Z,14.20
2018-08-24T23:04:25.218Z,14.10
2018-08-24T23:06:53.486Z,13.90
2018-08-24T23:09:21.840Z,13.80
2018-08-24T23:11:50.104Z,13.90
2018-08-24T23:14:18.415Z,13.80
2018-08-24T23:16:46.778Z,13.80
2018-08-24T23:19:15.446Z,13.80
2018-08-24T23:21:45.286Z,13.80
2018-08-24T23:24:15.207Z,13.80
2018-08-24T23:26:44.353Z,13.70
2018-08-24T23:29:14.191Z,13.70
2018-08-24T23:31:43.662Z,13.70
2018-08-24T23:34:12.805Z,13.60
2018-08-24T23:36:40.994Z,13.60
2018-08-24T23:39:10.136Z,13.60
2018-08-24T23:41:38.407Z,13.50
2018-08-24T23:44:14.716Z,13.50
2018-08-24T23:46:44.117Z,13.50
2018-08-24T23:49:13.579Z,13.50
2018-08-24T23:51:42.585Z,13.50
2018-08-24T23:54:10.838Z,13.50
2018-08-24T23:56:39.030Z,13.50
2018-08-24T23:59:07.296Z,13.50
